sensor_id;sensor_type;location;lat;lon;timestamp;P1;durP1;ratioP1;P2;durP2;ratioP2
17239;SDS011;9943;54.378;18.604;2022-09-16T00:01:50;8.38;;;2.80;;
17239;SDS011;9943;54.378;18.604;2022-09-16T00:04:21;5.10;;;2.22;;
17239;SDS011;9943;54.378;18.604;2022-09-16T00:06:51;5.38;;;1.85;;
17239;SDS011;9943;54.378;18.604;2022-09-16T00:09:20;2.95;;;1.90;;
17239;SDS011;9943;54.378;18.604;2022-09-16T00:11:50;4.18;;;2.30;;
17239;SDS011;9943;54.378;18.604;2022-09-16T00:14:31;5.07;;;1.92;;
17239;SDS011;9943;54.378;18.604;2022-09-16T00:17:05;5.40;;;1.88;;
17239;SDS011;9943;54.378;18.604;2022-09-16T00:19:40;6.93;;;2.25;;
17239;SDS011;9943;54.378;18.604;2022-09-16T00:22:11;6.18;;;2.17;;
17239;SDS011;9943;54.378;18.604;2022-09-16T00:24:49;6.18;;;1.52;;
17239;SDS011;9943;54.378;18.604;2022-09-16T00:27:26;6.78;;;1.80;;
17239;SDS011;9943;54.378;18.604;2022-09-16T00:30:00;9.45;;;1.65;;
17239;SDS011;9943;54.378;18.604;2022-09-16T00:32:31;4.70;;;1.95;;
17239;SDS011;9943;54.378;18.604;2022-09-16T00:35:01;4.22;;;1.80;;
17239;SDS011;9943;54.378;18.604;2022-09-16T00:37:33;6.00;;;2.00;;
17239;SDS011;9943;54.378;18.604;2022-09-16T00:40:08;7.03;;;1.92;;
17239;SDS011;9943;54.378;18.604;2022-09-16T00:42:42;4.35;;;1.60;;
17239;SDS011;9943;54.378;18.604;2022-09-16T00:45:13;6.03;;;2.03;;
17239;SDS011;9943;54.378;18.604;2022-09-16T00:47:45;2.88;;;2.08;;
17239;SDS011;9943;54.378;18.604;2022-09-16T00:50:19;5.53;;;1.63;;
17239;SDS011;9943;54.378;18.604;2022-09-16T00:52:53;7.88;;;2.03;;
17239;SDS011;9943;54.378;18.604;2022-09-16T00:55:24;5.72;;;1.75;;
17239;SDS011;9943;54.378;18.604;2022-09-16T00:57:58;4.95;;;1.50;;
17239;SDS011;9943;54.378;18.604;2022-09-16T01:00:33;4.38;;;1.90;;
17239;SDS011;9943;54.378;18.604;2022-09-16T01:03:03;3.58;;;1.33;;
17239;SDS011;9943;54.378;18.604;2022-09-16T01:05:35;7.47;;;1.98;;
17239;SDS011;9943;54.378;18.604;2022-09-16T01:08:05;3.00;;;1.52;;
17239;SDS011;9943;54.378;18.604;2022-09-16T01:10:33;6.05;;;1.80;;
17239;SDS011;9943;54.378;18.604;2022-09-16T01:13:07;6.00;;;1.98;;
17239;SDS011;9943;54.378;18.604;2022-09-16T01:15:43;5.28;;;1.50;;
17239;SDS011;9943;54.378;18.604;2022-09-16T01:18:18;8.68;;;1.65;;
17239;SDS011;9943;54.378;18.604;2022-09-16T01:21:08;9.45;;;2.03;;
17239;SDS011;9943;54.378;18.604;2022-09-16T01:23:59;2.92;;;1.55;;
17239;SDS011;9943;54.378;18.604;2022-09-16T01:26:46;6.03;;;1.75;;
17239;SDS011;9943;54.378;18.604;2022-09-16T01:32:59;2.30;;;1.67;;
17239;SDS011;9943;54.378;18.604;2022-09-16T01:35:39;4.25;;;1.45;;
17239;SDS011;9943;54.378;18.604;2022-09-16T01:38:21;8.15;;;1.67;;
17239;SDS011;9943;54.378;18.604;2022-09-16T01:41:04;3.88;;;1.42;;
17239;SDS011;9943;54.378;18.604;2022-09-16T01:43:43;7.45;;;2.00;;
17239;SDS011;9943;54.378;18.604;2022-09-16T01:46:26;5.35;;;1.65;;
17239;SDS011;9943;54.378;18.604;2022-09-16T01:49:12;4.25;;;1.58;;
17239;SDS011;9943;54.378;18.604;2022-09-16T01:51:52;4.28;;;1.58;;
17239;SDS011;9943;54.378;18.604;2022-09-16T01:54:35;5.10;;;1.58;;
17239;SDS011;9943;54.378;18.604;2022-09-16T01:57:12;5.20;;;1.75;;
17239;SDS011;9943;54.378;18.604;2022-09-16T01:59:46;5.70;;;1.85;;
17239;SDS011;9943;54.378;18.604;2022-09-16T02:02:22;6.03;;;1.75;;
17239;SDS011;9943;54.378;18.604;2022-09-16T02:05:07;4.60;;;1.88;;
17239;SDS011;9943;54.378;18.604;2022-09-16T02:07:40;7.93;;;1.95;;
17239;SDS011;9943;54.378;18.604;2022-09-16T02:10:14;7.78;;;1.50;;
17239;SDS011;9943;54.378;18.604;2022-09-16T02:12:51;6.32;;;1.70;;
17239;SDS011;9943;54.378;18.604;2022-09-16T02:15:22;5.88;;;1.60;;
17239;SDS011;9943;54.378;18.604;2022-09-16T02:17:55;6.07;;;1.63;;
17239;SDS011;9943;54.378;18.604;2022-09-16T02:20:32;3.92;;;1.77;;
17239;SDS011;9943;54.378;18.604;2022-09-16T02:23:07;8.02;;;1.83;;
17239;SDS011;9943;54.378;18.604;2022-09-16T02:25:43;5.68;;;1.60;;
17239;SDS011;9943;54.378;18.604;2022-09-16T02:28:19;12.32;;;2.60;;
17239;SDS011;9943;54.378;18.604;2022-09-16T02:30:54;3.67;;;1.60;;
17239;SDS011;9943;54.378;18.604;2022-09-16T02:33:29;4.50;;;1.73;;
17239;SDS011;9943;54.378;18.604;2022-09-16T02:36:05;3.72;;;1.52;;
17239;SDS011;9943;54.378;18.604;2022-09-16T02:38:43;5.35;;;1.50;;
17239;SDS011;9943;54.378;18.604;2022-09-16T02:41:15;4.00;;;1.67;;
17239;SDS011;9943;54.378;18.604;2022-09-16T02:43:45;7.65;;;2.95;;
17239;SDS011;9943;54.378;18.604;2022-09-16T02:46:24;9.57;;;1.80;;
17239;SDS011;9943;54.378;18.604;2022-09-16T02:49:02;4.72;;;1.75;;
17239;SDS011;9943;54.378;18.604;2022-09-16T02:51:44;6.60;;;1.70;;
17239;SDS011;9943;54.378;18.604;2022-09-16T02:54:22;4.82;;;1.70;;
17239;SDS011;9943;54.378;18.604;2022-09-16T02:56:59;5.53;;;2.92;;
17239;SDS011;9943;54.378;18.604;2022-09-16T02:59:32;4.93;;;1.70;;
17239;SDS011;9943;54.378;18.604;2022-09-16T03:02:01;4.60;;;1.83;;
17239;SDS011;9943;54.378;18.604;2022-09-16T03:04:34;4.85;;;1.77;;
17239;SDS011;9943;54.378;18.604;2022-09-16T03:07:08;6.57;;;1.88;;
17239;SDS011;9943;54.378;18.604;2022-09-16T03:09:38;5.22;;;2.10;;
17239;SDS011;9943;54.378;18.604;2022-09-16T03:12:14;5.78;;;1.92;;
17239;SDS011;9943;54.378;18.604;2022-09-16T03:15:03;5.97;;;1.80;;
17239;SDS011;9943;54.378;18.604;2022-09-16T03:17:51;6.65;;;1.80;;
17239;SDS011;9943;54.378;18.604;2022-09-16T03:20:33;5.63;;;1.90;;
17239;SDS011;9943;54.378;18.604;2022-09-16T03:23:15;6.43;;;1.95;;
17239;SDS011;9943;54.378;18.604;2022-09-16T03:25:50;5.25;;;1.58;;
17239;SDS011;9943;54.378;18.604;2022-09-16T03:28:26;7.20;;;1.80;;
17239;SDS011;9943;54.378;18.604;2022-09-16T03:31:04;7.18;;;1.83;;
17239;SDS011;9943;54.378;18.604;2022-09-16T03:33:40;8.68;;;1.65;;
17239;SDS011;9943;54.378;18.604;2022-09-16T03:36:17;5.63;;;1.70;;
17239;SDS011;9943;54.378;18.604;2022-09-16T03:38:53;5.50;;;1.90;;
17239;SDS011;9943;54.378;18.604;2022-09-16T03:41:23;6.85;;;1.85;;
17239;SDS011;9943;54.378;18.604;2022-09-16T03:43:54;4.18;;;1.67;;
17239;SDS011;9943;54.378;18.604;2022-09-16T03:46:25;5.70;;;2.10;;
17239;SDS011;9943;54.378;18.604;2022-09-16T03:48:56;5.60;;;1.85;;
17239;SDS011;9943;54.378;18.604;2022-09-16T03:51:25;7.18;;;1.67;;
17239;SDS011;9943;54.378;18.604;2022-09-16T03:53:55;7.85;;;1.77;;
17239;SDS011;9943;54.378;18.604;2022-09-16T03:56:24;8.05;;;1.80;;
17239;SDS011;9943;54.378;18.604;2022-09-16T03:58:54;4.72;;;1.88;;
17239;SDS011;9943;54.378;18.604;2022-09-16T04:01:22;4.90;;;1.85;;
17239;SDS011;9943;54.378;18.604;2022-09-16T04:03:52;10.15;;;1.92;;
17239;SDS011;9943;54.378;18.604;2022-09-16T04:06:22;10.52;;;2.00;;
17239;SDS011;9943;54.378;18.604;2022-09-16T04:09:00;4.95;;;1.92;;
17239;SDS011;9943;54.378;18.604;2022-09-16T04:11:34;7.55;;;2.97;;
17239;SDS011;9943;54.378;18.604;2022-09-16T04:14:02;7.55;;;2.00;;
17239;SDS011;9943;54.378;18.604;2022-09-16T04:16:32;4.30;;;1.98;;
17239;SDS011;9943;54.378;18.604;2022-09-16T04:19:01;4.82;;;1.90;;
17239;SDS011;9943;54.378;18.604;2022-09-16T04:21:30;4.32;;;1.80;;
17239;SDS011;9943;54.378;18.604;2022-09-16T04:24:00;7.45;;;2.50;;
17239;SDS011;9943;54.378;18.604;2022-09-16T04:26:30;6.53;;;1.90;;
17239;SDS011;9943;54.378;18.604;2022-09-16T04:29:01;9.98;;;2.15;;
17239;SDS011;9943;54.378;18.604;2022-09-16T04:31:30;5.97;;;1.73;;
17239;SDS011;9943;54.378;18.604;2022-09-16T04:34:00;5.45;;;1.77;;
17239;SDS011;9943;54.378;18.604;2022-09-16T04:36:31;6.13;;;2.42;;
17239;SDS011;9943;54.378;18.604;2022-09-16T04:39:01;7.60;;;2.60;;
17239;SDS011;9943;54.378;18.604;2022-09-16T04:41:33;6.70;;;2.45;;
17239;SDS011;9943;54.378;18.604;2022-09-16T04:44:02;4.25;;;1.52;;
17239;SDS011;9943;54.378;18.604;2022-09-16T04:46:34;5.60;;;1.65;;
17239;SDS011;9943;54.378;18.604;2022-09-16T04:49:08;7.40;;;1.98;;
17239;SDS011;9943;54.378;18.604;2022-09-16T04:51:39;7.82;;;1.63;;
17239;SDS011;9943;54.378;18.604;2022-09-16T04:54:16;5.15;;;2.03;;
17239;SDS011;9943;54.378;18.604;2022-09-16T04:56:51;5.47;;;1.98;;
17239;SDS011;9943;54.378;18.604;2022-09-16T04:59:20;9.05;;;2.00;;
17239;SDS011;9943;54.378;18.604;2022-09-16T05:01:48;6.90;;;2.05;;
17239;SDS011;9943;54.378;18.604;2022-09-16T05:04:17;5.68;;;2.22;;
17239;SDS011;9943;54.378;18.604;2022-09-16T05:06:47;5.43;;;1.88;;
17239;SDS011;9943;54.378;18.604;2022-09-16T05:09:18;6.53;;;2.20;;
17239;SDS011;9943;54.378;18.604;2022-09-16T05:11:51;7.82;;;2.35;;
17239;SDS011;9943;54.378;18.604;2022-09-16T05:14:29;6.35;;;2.35;;
17239;SDS011;9943;54.378;18.604;2022-09-16T05:16:59;4.50;;;1.70;;
17239;SDS011;9943;54.378;18.604;2022-09-16T05:19:31;9.77;;;2.25;;
17239;SDS011;9943;54.378;18.604;2022-09-16T05:22:03;5.65;;;2.25;;
17239;SDS011;9943;54.378;18.604;2022-09-16T05:24:42;6.90;;;1.77;;
17239;SDS011;9943;54.378;18.604;2022-09-16T05:27:11;6.40;;;1.73;;
17239;SDS011;9943;54.378;18.604;2022-09-16T05:29:42;11.10;;;3.17;;
17239;SDS011;9943;54.378;18.604;2022-09-16T05:32:12;4.60;;;1.88;;
17239;SDS011;9943;54.378;18.604;2022-09-16T05:34:40;5.90;;;2.00;;
17239;SDS011;9943;54.378;18.604;2022-09-16T05:37:10;5.22;;;1.70;;
17239;SDS011;9943;54.378;18.604;2022-09-16T05:39:43;4.63;;;1.90;;
17239;SDS011;9943;54.378;18.604;2022-09-16T05:42:16;5.18;;;1.83;;
17239;SDS011;9943;54.378;18.604;2022-09-16T05:44:45;7.32;;;2.20;;
17239;SDS011;9943;54.378;18.604;2022-09-16T05:47:15;8.02;;;2.55;;
17239;SDS011;9943;54.378;18.604;2022-09-16T05:49:47;8.10;;;1.73;;
17239;SDS011;9943;54.378;18.604;2022-09-16T05:52:20;7.15;;;2.03;;
17239;SDS011;9943;54.378;18.604;2022-09-16T05:54:53;6.70;;;1.90;;
17239;SDS011;9943;54.378;18.604;2022-09-16T05:57:21;6.25;;;1.95;;
17239;SDS011;9943;54.378;18.604;2022-09-16T05:59:50;5.78;;;2.30;;
17239;SDS011;9943;54.378;18.604;2022-09-16T06:02:21;10.73;;;2.17;;
17239;SDS011;9943;54.378;18.604;2022-09-16T06:04:50;5.20;;;2.20;;
17239;SDS011;9943;54.378;18.604;2022-09-16T06:07:20;7.28;;;2.22;;
17239;SDS011;9943;54.378;18.604;2022-09-16T06:09:49;6.15;;;1.85;;
17239;SDS011;9943;54.378;18.604;2022-09-16T06:12:20;3.45;;;1.58;;
17239;SDS011;9943;54.378;18.604;2022-09-16T06:14:53;5.60;;;1.73;;
17239;SDS011;9943;54.378;18.604;2022-09-16T06:17:24;6.63;;;2.05;;
17239;SDS011;9943;54.378;18.604;2022-09-16T06:19:54;7.50;;;1.70;;
17239;SDS011;9943;54.378;18.604;2022-09-16T06:22:28;6.45;;;1.60;;
17239;SDS011;9943;54.378;18.604;2022-09-16T06:24:59;5.05;;;1.83;;
17239;SDS011;9943;54.378;18.604;2022-09-16T06:27:31;3.85;;;1.73;;
17239;SDS011;9943;54.378;18.604;2022-09-16T06:30:00;4.53;;;1.80;;
17239;SDS011;9943;54.378;18.604;2022-09-16T06:32:31;6.07;;;1.70;;
17239;SDS011;9943;54.378;18.604;2022-09-16T06:35:04;7.35;;;1.90;;
17239;SDS011;9943;54.378;18.604;2022-09-16T06:37:36;5.95;;;1.95;;
17239;SDS011;9943;54.378;18.604;2022-09-16T06:40:06;9.45;;;2.03;;
17239;SDS011;9943;54.378;18.604;2022-09-16T06:42:47;3.00;;;1.58;;
17239;SDS011;9943;54.378;18.604;2022-09-16T06:45:56;5.93;;;1.65;;
17239;SDS011;9943;54.378;18.604;2022-09-16T06:48:30;7.80;;;1.77;;
17239;SDS011;9943;54.378;18.604;2022-09-16T06:51:04;4.03;;;1.60;;
17239;SDS011;9943;54.378;18.604;2022-09-16T06:53:37;6.18;;;1.95;;
17239;SDS011;9943;54.378;18.604;2022-09-16T06:56:10;4.75;;;1.80;;
17239;SDS011;9943;54.378;18.604;2022-09-16T06:58:46;12.90;;;2.47;;
17239;SDS011;9943;54.378;18.604;2022-09-16T07:01:19;5.68;;;1.73;;
17239;SDS011;9943;54.378;18.604;2022-09-16T07:03:55;6.20;;;2.10;;
17239;SDS011;9943;54.378;18.604;2022-09-16T07:06:31;6.45;;;1.80;;
17239;SDS011;9943;54.378;18.604;2022-09-16T07:09:06;5.28;;;2.10;;
17239;SDS011;9943;54.378;18.604;2022-09-16T07:11:49;5.55;;;1.55;;
17239;SDS011;9943;54.378;18.604;2022-09-16T07:14:22;4.43;;;1.50;;
17239;SDS011;9943;54.378;18.604;2022-09-16T07:16:53;4.00;;;1.52;;
17239;SDS011;9943;54.378;18.604;2022-09-16T07:19:24;5.60;;;1.55;;
17239;SDS011;9943;54.378;18.604;2022-09-16T07:21:55;4.45;;;1.65;;
17239;SDS011;9943;54.378;18.604;2022-09-16T07:24:26;3.47;;;1.58;;
17239;SDS011;9943;54.378;18.604;2022-09-16T07:26:59;2.05;;;1.33;;
17239;SDS011;9943;54.378;18.604;2022-09-16T07:29:30;4.85;;;1.63;;
17239;SDS011;9943;54.378;18.604;2022-09-16T07:31:58;3.90;;;1.38;;
17239;SDS011;9943;54.378;18.604;2022-09-16T07:34:30;3.95;;;1.35;;
17239;SDS011;9943;54.378;18.604;2022-09-16T07:36:59;7.05;;;1.73;;
17239;SDS011;9943;54.378;18.604;2022-09-16T07:39:31;5.57;;;1.35;;
17239;SDS011;9943;54.378;18.604;2022-09-16T07:42:02;6.03;;;1.60;;
17239;SDS011;9943;54.378;18.604;2022-09-16T07:44:33;4.60;;;1.55;;
17239;SDS011;9943;54.378;18.604;2022-09-16T07:47:02;5.57;;;1.67;;
17239;SDS011;9943;54.378;18.604;2022-09-16T07:49:34;5.30;;;1.70;;
17239;SDS011;9943;54.378;18.604;2022-09-16T07:52:03;5.10;;;1.98;;
17239;SDS011;9943;54.378;18.604;2022-09-16T07:54:36;4.72;;;1.60;;
17239;SDS011;9943;54.378;18.604;2022-09-16T07:57:20;5.40;;;1.80;;
17239;SDS011;9943;54.378;18.604;2022-09-16T08:00:02;10.02;;;2.40;;
17239;SDS011;9943;54.378;18.604;2022-09-16T08:02:34;2.65;;;1.73;;
17239;SDS011;9943;54.378;18.604;2022-09-16T08:05:05;6.00;;;1.50;;
17239;SDS011;9943;54.378;18.604;2022-09-16T08:07:34;5.10;;;1.42;;
17239;SDS011;9943;54.378;18.604;2022-09-16T08:10:06;12.25;;;1.88;;
17239;SDS011;9943;54.378;18.604;2022-09-16T08:12:34;8.65;;;1.63;;
17239;SDS011;9943;54.378;18.604;2022-09-16T08:15:11;2.97;;;1.40;;
17239;SDS011;9943;54.378;18.604;2022-09-16T08:17:42;5.55;;;1.90;;
17239;SDS011;9943;54.378;18.604;2022-09-16T08:20:11;3.63;;;1.73;;
17239;SDS011;9943;54.378;18.604;2022-09-16T08:22:45;6.22;;;1.95;;
17239;SDS011;9943;54.378;18.604;2022-09-16T08:25:16;5.95;;;1.67;;
17239;SDS011;9943;54.378;18.604;2022-09-16T08:27:49;5.90;;;1.45;;
17239;SDS011;9943;54.378;18.604;2022-09-16T08:30:21;5.28;;;1.80;;
17239;SDS011;9943;54.378;18.604;2022-09-16T08:32:55;6.45;;;1.65;;
17239;SDS011;9943;54.378;18.604;2022-09-16T08:35:33;6.25;;;2.05;;
17239;SDS011;9943;54.378;18.604;2022-09-16T08:38:02;6.25;;;1.70;;
17239;SDS011;9943;54.378;18.604;2022-09-16T08:40:33;4.25;;;1.60;;
17239;SDS011;9943;54.378;18.604;2022-09-16T08:43:06;3.70;;;1.58;;
17239;SDS011;9943;54.378;18.604;2022-09-16T08:45:43;8.73;;;1.90;;
17239;SDS011;9943;54.378;18.604;2022-09-16T08:48:30;4.55;;;1.77;;
17239;SDS011;9943;54.378;18.604;2022-09-16T08:51:09;9.32;;;2.08;;
17239;SDS011;9943;54.378;18.604;2022-09-16T08:53:44;5.18;;;1.60;;
17239;SDS011;9943;54.378;18.604;2022-09-16T08:56:32;3.72;;;1.80;;
17239;SDS011;9943;54.378;18.604;2022-09-16T08:59:15;2.55;;;1.73;;
17239;SDS011;9943;54.378;18.604;2022-09-16T09:08:28;5.68;;;1.52;;
17239;SDS011;9943;54.378;18.604;2022-09-16T09:11:16;3.47;;;1.55;;
17239;SDS011;9943;54.378;18.604;2022-09-16T09:13:55;2.80;;;1.23;;
17239;SDS011;9943;54.378;18.604;2022-09-16T09:16:45;4.70;;;1.60;;
17239;SDS011;9943;54.378;18.604;2022-09-16T09:19:27;3.60;;;1.40;;
17239;SDS011;9943;54.378;18.604;2022-09-16T09:22:10;5.28;;;1.52;;
17239;SDS011;9943;54.378;18.604;2022-09-16T09:28:41;8.43;;;1.60;;
17239;SDS011;9943;54.378;18.604;2022-09-16T09:32:02;4.00;;;1.60;;
17239;SDS011;9943;54.378;18.604;2022-09-16T09:34:57;3.17;;;1.30;;
17239;SDS011;9943;54.378;18.604;2022-09-16T09:37:41;4.57;;;2.05;;
17239;SDS011;9943;54.378;18.604;2022-09-16T09:40:26;4.75;;;1.67;;
17239;SDS011;9943;54.378;18.604;2022-09-16T09:43:04;3.28;;;1.52;;
17239;SDS011;9943;54.378;18.604;2022-09-16T09:45:42;3.70;;;1.70;;
17239;SDS011;9943;54.378;18.604;2022-09-16T09:48:16;1.67;;;1.50;;
17239;SDS011;9943;54.378;18.604;2022-09-16T09:50:55;5.63;;;1.73;;
17239;SDS011;9943;54.378;18.604;2022-09-16T09:53:31;4.15;;;1.70;;
17239;SDS011;9943;54.378;18.604;2022-09-16T09:56:07;3.45;;;1.42;;
17239;SDS011;9943;54.378;18.604;2022-09-16T09:58:47;4.30;;;1.48;;
17239;SDS011;9943;54.378;18.604;2022-09-16T10:01:19;7.65;;;1.42;;
17239;SDS011;9943;54.378;18.604;2022-09-16T10:03:53;6.03;;;1.38;;
17239;SDS011;9943;54.378;18.604;2022-09-16T10:06:29;5.32;;;1.80;;
17239;SDS011;9943;54.378;18.604;2022-09-16T10:09:02;2.58;;;1.30;;
17239;SDS011;9943;54.378;18.604;2022-09-16T10:11:46;3.25;;;1.30;;
17239;SDS011;9943;54.378;18.604;2022-09-16T10:14:24;2.92;;;1.38;;
17239;SDS011;9943;54.378;18.604;2022-09-16T10:17:00;6.10;;;1.48;;
17239;SDS011;9943;54.378;18.604;2022-09-16T10:19:35;7.10;;;1.52;;
17239;SDS011;9943;54.378;18.604;2022-09-16T10:22:18;3.10;;;1.27;;
17239;SDS011;9943;54.378;18.604;2022-09-16T10:25:20;5.10;;;1.60;;
17239;SDS011;9943;54.378;18.604;2022-09-16T10:31:51;4.53;;;1.55;;
17239;SDS011;9943;54.378;18.604;2022-09-16T10:48:52;4.10;;;1.40;;
17239;SDS011;9943;54.378;18.604;2022-09-16T10:51:24;6.28;;;1.63;;
17239;SDS011;9943;54.378;18.604;2022-09-16T10:53:59;4.82;;;1.35;;
17239;SDS011;9943;54.378;18.604;2022-09-16T10:56:45;2.92;;;1.10;;
17239;SDS011;9943;54.378;18.604;2022-09-16T10:59:15;5.95;;;2.10;;
17239;SDS011;9943;54.378;18.604;2022-09-16T11:12:24;4.30;;;1.33;;
17239;SDS011;9943;54.378;18.604;2022-09-16T11:15:12;7.50;;;1.40;;
17239;SDS011;9943;54.378;18.604;2022-09-16T11:27:34;5.15;;;1.55;;
17239;SDS011;9943;54.378;18.604;2022-09-16T11:30:07;2.08;;;1.20;;
17239;SDS011;9943;54.378;18.604;2022-09-16T11:33:03;3.80;;;1.30;;
17239;SDS011;9943;54.378;18.604;2022-09-16T11:36:07;4.07;;;1.50;;
17239;SDS011;9943;54.378;18.604;2022-09-16T11:38:46;8.23;;;1.45;;
17239;SDS011;9943;54.378;18.604;2022-09-16T11:41:46;3.25;;;1.30;;
17239;SDS011;9943;54.378;18.604;2022-09-16T11:47:15;3.53;;;1.50;;
17239;SDS011;9943;54.378;18.604;2022-09-16T11:49:54;4.72;;;1.40;;
17239;SDS011;9943;54.378;18.604;2022-09-16T11:52:49;3.45;;;1.20;;
17239;SDS011;9943;54.378;18.604;2022-09-16T11:55:27;3.67;;;1.20;;
17239;SDS011;9943;54.378;18.604;2022-09-16T11:58:33;1.80;;;1.20;;
17239;SDS011;9943;54.378;18.604;2022-09-16T12:01:13;5.40;;;1.20;;
17239;SDS011;9943;54.378;18.604;2022-09-16T12:03:47;6.38;;;1.73;;
17239;SDS011;9943;54.378;18.604;2022-09-16T12:06:20;4.25;;;1.35;;
17239;SDS011;9943;54.378;18.604;2022-09-16T12:09:03;5.90;;;1.45;;
17239;SDS011;9943;54.378;18.604;2022-09-16T12:11:39;4.30;;;1.30;;
17239;SDS011;9943;54.378;18.604;2022-09-16T12:14:15;2.67;;;1.30;;
17239;SDS011;9943;54.378;18.604;2022-09-16T12:16:46;6.70;;;1.52;;
17239;SDS011;9943;54.378;18.604;2022-09-16T12:22:28;3.20;;;1.25;;
17239;SDS011;9943;54.378;18.604;2022-09-16T12:24:59;2.95;;;1.13;;
17239;SDS011;9943;54.378;18.604;2022-09-16T12:27:55;3.13;;;1.15;;
17239;SDS011;9943;54.378;18.604;2022-09-16T12:30:33;4.45;;;1.10;;
17239;SDS011;9943;54.378;18.604;2022-09-16T12:33:09;4.22;;;1.25;;
17239;SDS011;9943;54.378;18.604;2022-09-16T12:35:49;3.03;;;1.00;;
17239;SDS011;9943;54.378;18.604;2022-09-16T12:38:24;4.22;;;1.05;;
17239;SDS011;9943;54.378;18.604;2022-09-16T12:41:00;4.50;;;1.42;;
17239;SDS011;9943;54.378;18.604;2022-09-16T12:46:37;5.72;;;1.27;;
17239;SDS011;9943;54.378;18.604;2022-09-16T12:49:29;5.00;;;1.50;;
17239;SDS011;9943;54.378;18.604;2022-09-16T12:55:22;4.15;;;1.00;;
17239;SDS011;9943;54.378;18.604;2022-09-16T13:00:44;3.22;;;0.95;;
17239;SDS011;9943;54.378;18.604;2022-09-16T13:03:21;3.55;;;1.30;;
17239;SDS011;9943;54.378;18.604;2022-09-16T13:06:14;2.92;;;1.35;;
17239;SDS011;9943;54.378;18.604;2022-09-16T13:08:46;4.18;;;1.05;;
17239;SDS011;9943;54.378;18.604;2022-09-16T13:11:21;4.07;;;1.30;;
17239;SDS011;9943;54.378;18.604;2022-09-16T13:14:19;2.95;;;1.15;;
17239;SDS011;9943;54.378;18.604;2022-09-16T13:17:00;2.97;;;0.98;;
17239;SDS011;9943;54.378;18.604;2022-09-16T13:19:36;2.25;;;1.20;;
17239;SDS011;9943;54.378;18.604;2022-09-16T13:22:28;4.75;;;1.65;;
17239;SDS011;9943;54.378;18.604;2022-09-16T13:25:08;2.72;;;1.30;;
17239;SDS011;9943;54.378;18.604;2022-09-16T13:33:43;1.13;;;0.90;;
17239;SDS011;9943;54.378;18.604;2022-09-16T13:36:15;2.20;;;1.10;;
17239;SDS011;9943;54.378;18.604;2022-09-16T13:38:57;2.85;;;1.00;;
17239;SDS011;9943;54.378;18.604;2022-09-16T13:41:47;1.42;;;0.98;;
17239;SDS011;9943;54.378;18.604;2022-09-16T13:44:29;3.58;;;1.02;;
17239;SDS011;9943;54.378;18.604;2022-09-16T13:50:13;1.77;;;1.10;;
17239;SDS011;9943;54.378;18.604;2022-09-16T13:56:30;3.75;;;0.80;;
17239;SDS011;9943;54.378;18.604;2022-09-16T13:59:19;3.25;;;1.40;;
17239;SDS011;9943;54.378;18.604;2022-09-16T14:02:18;5.00;;;1.00;;
17239;SDS011;9943;54.378;18.604;2022-09-16T14:05:04;2.90;;;1.35;;
17239;SDS011;9943;54.378;18.604;2022-09-16T14:07:50;4.97;;;1.23;;
17239;SDS011;9943;54.378;18.604;2022-09-16T14:20:34;3.42;;;1.20;;
17239;SDS011;9943;54.378;18.604;2022-09-16T14:23:14;2.70;;;1.10;;
17239;SDS011;9943;54.378;18.604;2022-09-16T14:26:08;1.95;;;1.10;;
17239;SDS011;9943;54.378;18.604;2022-09-16T14:28:39;4.13;;;1.33;;
17239;SDS011;9943;54.378;18.604;2022-09-16T14:31:31;1.40;;;1.20;;
17239;SDS011;9943;54.378;18.604;2022-09-16T14:37:35;2.67;;;1.05;;
17239;SDS011;9943;54.378;18.604;2022-09-16T14:43:53;1.83;;;0.93;;
17239;SDS011;9943;54.378;18.604;2022-09-16T14:46:40;3.40;;;1.23;;
17239;SDS011;9943;54.378;18.604;2022-09-16T15:03:17;3.78;;;1.10;;
17239;SDS011;9943;54.378;18.604;2022-09-16T15:06:19;3.67;;;1.27;;
17239;SDS011;9943;54.378;18.604;2022-09-16T15:08:55;5.07;;;1.20;;
17239;SDS011;9943;54.378;18.604;2022-09-16T15:11:33;4.35;;;1.10;;
17239;SDS011;9943;54.378;18.604;2022-09-16T15:14:05;4.95;;;1.40;;
17239;SDS011;9943;54.378;18.604;2022-09-16T15:16:56;3.53;;;1.60;;
17239;SDS011;9943;54.378;18.604;2022-09-16T15:19:42;4.70;;;1.40;;
17239;SDS011;9943;54.378;18.604;2022-09-16T15:22:23;1.60;;;1.10;;
17239;SDS011;9943;54.378;18.604;2022-09-16T15:24:59;1.85;;;1.08;;
17239;SDS011;9943;54.378;18.604;2022-09-16T15:27:48;6.18;;;1.60;;
17239;SDS011;9943;54.378;18.604;2022-09-16T15:30:43;4.20;;;1.30;;
17239;SDS011;9943;54.378;18.604;2022-09-16T15:36:29;2.28;;;1.30;;
17239;SDS011;9943;54.378;18.604;2022-09-16T15:39:23;4.20;;;1.40;;
17239;SDS011;9943;54.378;18.604;2022-09-16T15:42:02;3.45;;;1.20;;
17239;SDS011;9943;54.378;18.604;2022-09-16T15:47:57;2.25;;;1.45;;
17239;SDS011;9943;54.378;18.604;2022-09-16T15:50:37;4.00;;;1.35;;
17239;SDS011;9943;54.378;18.604;2022-09-16T15:53:33;3.45;;;1.20;;
17239;SDS011;9943;54.378;18.604;2022-09-16T15:56:08;2.95;;;1.20;;
17239;SDS011;9943;54.378;18.604;2022-09-16T15:58:51;2.50;;;1.38;;
17239;SDS011;9943;54.378;18.604;2022-09-16T16:01:34;4.00;;;1.13;;
17239;SDS011;9943;54.378;18.604;2022-09-16T16:04:12;3.55;;;1.38;;
17239;SDS011;9943;54.378;18.604;2022-09-16T16:07:00;2.85;;;1.27;;
17239;SDS011;9943;54.378;18.604;2022-09-16T16:12:44;3.20;;;1.35;;
17239;SDS011;9943;54.378;18.604;2022-09-16T16:15:22;4.93;;;2.08;;
17239;SDS011;9943;54.378;18.604;2022-09-16T16:18:13;3.08;;;1.40;;
17239;SDS011;9943;54.378;18.604;2022-09-16T16:20:49;4.53;;;1.33;;
17239;SDS011;9943;54.378;18.604;2022-09-16T16:23:21;3.90;;;1.33;;
17239;SDS011;9943;54.378;18.604;2022-09-16T16:25:56;3.65;;;1.42;;
17239;SDS011;9943;54.378;18.604;2022-09-16T16:34:54;3.83;;;1.67;;
17239;SDS011;9943;54.378;18.604;2022-09-16T16:37:47;6.90;;;1.45;;
17239;SDS011;9943;54.378;18.604;2022-09-16T16:40:18;6.05;;;1.65;;
17239;SDS011;9943;54.378;18.604;2022-09-16T16:43:05;3.38;;;1.63;;
17239;SDS011;9943;54.378;18.604;2022-09-16T16:46:10;4.00;;;2.50;;
17239;SDS011;9943;54.378;18.604;2022-09-16T16:48:46;3.58;;;2.35;;
17239;SDS011;9943;54.378;18.604;2022-09-16T16:54:21;4.53;;;2.25;;
17239;SDS011;9943;54.378;18.604;2022-09-16T16:56:56;2.80;;;1.80;;
17239;SDS011;9943;54.378;18.604;2022-09-16T16:59:28;4.97;;;2.05;;
17239;SDS011;9943;54.378;18.604;2022-09-16T17:02:02;3.67;;;2.05;;
17239;SDS011;9943;54.378;18.604;2022-09-16T17:04:33;6.68;;;2.40;;
17239;SDS011;9943;54.378;18.604;2022-09-16T17:07:07;2.80;;;1.77;;
17239;SDS011;9943;54.378;18.604;2022-09-16T17:09:39;4.38;;;1.92;;
17239;SDS011;9943;54.378;18.604;2022-09-16T17:12:11;6.28;;;2.95;;
17239;SDS011;9943;54.378;18.604;2022-09-16T17:14:41;9.15;;;2.10;;
17239;SDS011;9943;54.378;18.604;2022-09-16T17:17:10;3.53;;;2.50;;
17239;SDS011;9943;54.378;18.604;2022-09-16T17:19:53;4.55;;;2.67;;
17239;SDS011;9943;54.378;18.604;2022-09-16T17:22:34;3.33;;;1.70;;
17239;SDS011;9943;54.378;18.604;2022-09-16T17:25:08;5.30;;;2.42;;
17239;SDS011;9943;54.378;18.604;2022-09-16T17:28:01;4.05;;;2.00;;
17239;SDS011;9943;54.378;18.604;2022-09-16T17:30:36;5.80;;;2.17;;
17239;SDS011;9943;54.378;18.604;2022-09-16T17:33:12;4.45;;;2.03;;
17239;SDS011;9943;54.378;18.604;2022-09-16T17:38:42;8.23;;;3.92;;
17239;SDS011;9943;54.378;18.604;2022-09-16T17:41:21;5.95;;;2.53;;
17239;SDS011;9943;54.378;18.604;2022-09-16T17:43:55;5.55;;;3.13;;
17239;SDS011;9943;54.378;18.604;2022-09-16T17:46:31;4.88;;;2.78;;
17239;SDS011;9943;54.378;18.604;2022-09-16T17:49:16;9.95;;;3.53;;
17239;SDS011;9943;54.378;18.604;2022-09-16T17:51:48;3.97;;;2.75;;
17239;SDS011;9943;54.378;18.604;2022-09-16T17:54:20;6.30;;;2.50;;
17239;SDS011;9943;54.378;18.604;2022-09-16T17:57:01;7.78;;;3.35;;
17239;SDS011;9943;54.378;18.604;2022-09-16T17:59:43;8.30;;;3.25;;